Terminal Aerodrome Forecast
Issued by NWS Mt. Holly, NJ

Current Version | Previous Version | Text Only | Print | Product List | Glossary On
Versions: 1 2 3 4 5 6 7 8 9 10 11 12 13 14 15 16 17 18 19 20 21 22 23 24 25 26
000
FTUS41 KPHI 230800 AAA
TAFRDG
TAF AMD
KRDG 230813Z 2308/2406 20004KT P6SM SCT090
      TEMPO 2310/2312 6SM BR
     FM231400 23008KT P6SM SCT040
      TEMPO 2322/2401 27015G30KT 3SM TSRA BKN035CB
     FM240100 30003KT 5SM BR BKN050 PROB30 2403/2406 -SHRA=

USA.gov is the U.S. government's official web portal to all federal, state and local government web resources and services.